Home > Products > Valid Products > TAF

000
FTUS43 KLSX 191200 AAA
TAFSUS
TAF AMD
KSUS 191234Z 1913/2012 00000KT 5SM BR FEW060 OVC100
     FM191400 VRB04KT 6SM -SHRA SCT050 BKN100
      TEMPO 1914/1918 4SM -SHRA BR BKN040 OVC080
     FM192100 27005KT P6SM VCTS SCT040CB BKN100
     FM200300 27007KT P6SM SCT040 BKN080
     FM200900 28010G18KT P6SM VCSH BKN025=



000
FTUS43 KLSX 191200 AAA
TAFSTL
TAF AMD
KSTL 191233Z 1913/2018 10006KT P6SM VCSH FEW060 BKN120
     FM191400 VRB06KT 6SM -SHRA SCT050 BKN100
      TEMPO 1914/1918 4SM -SHRA BR BKN040 OVC080
     FM192100 28006KT P6SM VCTS SCT050CB BKN100
     FM200300 27008KT P6SM SCT040 BKN080
     FM200900 30012G20KT P6SM VCSH BKN025
     FM201500 30015G25KT P6SM SCT040=



000
FTUS43 KLSX 191100
TAFUIN
TAF
KUIN 191134Z 1912/2012 06005KT P6SM SCT060 BKN150
     FM191500 VRB05KT P6SM -SHRA SCT050 BKN120
      TEMPO 1916/1920 5SM -SHRA BKN040 OVC080
     FM192100 28006KT P6SM VCTS SCT050CB BKN100
     FM200300 31010KT P6SM SCT040 BKN080
     FM200600 31012G20KT P6SM VCSH BKN025=



000
FTUS43 KLSX 191100
TAFCOU
TAF
KCOU 191134Z 1912/2012 10005KT 6SM -SHRA SCT060 BKN120
     FM191500 28007KT P6SM VCTS SCT050CB BKN100
     FM200000 30008KT P6SM SCT040 BKN080
     FM200600 31012G20KT P6SM VCSH BKN025=



000
FTUS43 KLSX 191100
TAFSTL
TAF
KSTL 191134Z 1912/2018 VRB05KT 6SM -SHRA SCT050 OVC100
      TEMPO 1914/1918 4SM -SHRA BR BKN040 OVC080
     FM192100 28006KT P6SM VCTS SCT050CB BKN100
     FM200300 27008KT P6SM SCT040 BKN080
     FM200900 30012G20KT P6SM VCSH BKN025
     FM201500 30015G25KT P6SM SCT040=



000
FTUS43 KLSX 191100
TAFSUS
TAF
KSUS 191134Z 1912/2012 VRB04KT 6SM -SHRA SCT050 OVC100
      TEMPO 1914/1918 4SM -SHRA BR BKN040 OVC080
     FM192100 27005KT P6SM VCTS SCT040CB BKN100
     FM200300 27007KT P6SM SCT040 BKN080
     FM200900 28010G18KT P6SM VCSH BKN025=



000
FTUS43 KLSX 191000 AAA
TAFCOU
TAF AMD
KCOU 191033Z 1911/2006 10007KT P6SM SCT050 BKN100
     FM191500 26007KT 6SM -SHRA OVC040
     FM192000 26009KT P6SM BKN040
     FM200500 30012G18KT P6SM OVC035=



000
FTUS43 KLSX 190900 AAA
TAFSUS
TAF AMD
KSUS 190910Z 1909/2006 00000KT P6SM FEW050 BKN100
     FM191100 00000KT P6SM -RA BKN050 BKN100
     FM191300 VRB04KT 4SM -RA BR BKN040 OVC080
     FM191900 30009KT P6SM VCTS BKN040CB
     FM192300 24008KT P6SM SCT035 BKN150=



000
FTUS43 KLSX 190900 AAA
TAFSTL
TAF AMD
KSTL 190908Z 1909/2012 VRB03KT P6SM FEW060 BKN200
     FM191100 VRB04KT P6SM -RA BKN050 OVC100
     FM191300 VRB05KT 4SM -RA BR BKN040 OVC080
     FM191900 30009KT P6SM VCTS BKN040CB
     FM192300 24008KT P6SM SCT035 BKN150
     FM201000 30012G18KT P6SM OVC030=



000
FTUS43 KLSX 190500
TAFCOU
TAF
KCOU 190520Z 1906/2006 10007KT P6SM SCT050 BKN150
     FM191100 20005KT 5SM -SHRA OVC040
     FM191500 26007KT 6SM -SHRA OVC040
     FM192000 26009KT P6SM BKN040
     FM200500 30012G18KT P6SM OVC035=



000
FTUS43 KLSX 190500
TAFUIN
TAF
KUIN 190520Z 1906/2006 12005KT P6SM VCTS BKN050CB BKN150
     FM190700 08005KT P6SM BKN050 BKN120
     FM191400 06006KT 5SM -RA BR OVC040
     FM192200 25006KT P6SM OVC035
     FM200500 30012G18KT P6SM OVC035=



000
FTUS43 KLSX 190500
TAFSUS
TAF
KSUS 190520Z 1906/2006 11006KT P6SM SCT050 BKN200
     FM190900 VRB03KT 6SM -RA BR OVC040
     FM191300 36005KT 3SM -RA BR OVC030
     FM191900 30009KT P6SM VCTS BKN040CB
     FM192300 24008KT P6SM SCT035 BKN150=



000
FTUS43 KLSX 190500
TAFSTL
TAF
KSTL 190520Z 1906/2012 11008KT P6SM SCT050 BKN200
     FM190900 08005KT 6SM -RA BR OVC040
     FM191300 36006KT 3SM -RA BR OVC030
     FM191900 30009KT P6SM VCTS BKN040CB
     FM192300 24008KT P6SM SCT035 BKN150
     FM201000 30012G18KT P6SM OVC030=



000
FTUS43 KLSX 190200 AAA
TAFSTL
TAF AMD
KSTL 190253Z 1903/2006 12008KT P6SM SCT050 BKN200
     FM190900 08005KT 6SM -RA BR OVC040
     FM191300 36006KT 3SM -RA BR OVC030
     FM191900 30009KT P6SM VCTS BKN040CB
     FM192300 24008KT P6SM SCT040 BKN150=



000
FTUS43 KLSX 190200 AAA
TAFSTL
TAF AMD
KSTL 190253Z 1903/2006 12008KT P6SM SCT050 BKN200
     FM190900 08005KT 6SM -RA BR OVC040
     FM191300 36006KT 3SM -RA BR OVC030
     FM191900 30009KT P6SM VCTS BKN040CB
     FM192300 24008KT P6SM SCT040 BKN150=



000
FTUS43 KLSX 190100 AAB
TAFCOU
TAF AMD
KCOU 190153Z 1902/1924 10007KT P6SM VCTS SCT050CB BKN150
     FM190300 10007KT P6SM SCT050 BKN150
     FM191100 20005KT 5SM -SHRA OVC040
     FM191500 26007KT 6SM -SHRA OVC040
     FM191900 26009KT P6SM BKN040=



000
FTUS43 KLSX 190000 AAA
TAFCOU
TAF AMD
KCOU 190050Z 1901/1924 10007KT P6SM VCTS SCT050CB BKN150
     FM190200 10007KT P6SM SCT050 BKN150
     FM191100 20005KT 5SM -SHRA OVC040
     FM191500 26007KT 6SM -SHRA OVC040
     FM191900 26009KT P6SM BKN040=



000
FTUS43 KLSX 190000 AAA
TAFCOU
TAF AMD
KCOU 190050Z 1901/1924 10007KT P6SM VCTS SCT050CB BKN150
     FM190200 10007KT P6SM SCT050 BKN150
     FM191100 20005KT 5SM -SHRA OVC040
     FM191500 26007KT 6SM -SHRA OVC040
     FM191900 26009KT P6SM BKN040=



000
FTUS43 KLSX 182300
TAFSTL
TAF
KSTL 182322Z 1900/2006 12008KT P6SM SCT050 BKN200
     FM190900 08005KT 6SM -RA BR OVC040
     FM191300 36006KT 3SM -RA BR OVC030
     FM191900 30009KT P6SM VCTS BKN040CB
     FM192300 24008KT P6SM SCT040 BKN150=



000
FTUS43 KLSX 182300
TAFUIN
TAF
KUIN 182322Z 1900/1924 16012G18KT P6SM SCT045 BKN200
     FM190200 12006KT P6SM VCTS BKN050CB
     FM190600 12005KT P6SM SCT050 BKN150
     FM191400 02006KT 5SM -RA BR OVC040
     FM192200 25006KT P6SM OVC035=



000
FTUS43 KLSX 182300
TAFSUS
TAF
KSUS 182322Z 1900/1924 12007KT P6SM SCT050 BKN200
     FM190900 VRB03KT 6SM -RA BR OVC040
     FM191300 36005KT 3SM -RA BR OVC030
     FM191900 30009KT P6SM VCTS BKN040CB=



000
FTUS43 KLSX 182300
TAFCOU
TAF
KCOU 182322Z 1900/1924 10007KT P6SM SCT050 BKN150
     FM191100 20005KT 5SM -SHRA OVC040
     FM191500 26007KT 6SM -SHRA OVC040
     FM191900 26009KT P6SM BKN040=



000
FTUS43 KLSX 182000 AAB
TAFCOU
TAF AMD
KCOU 182036Z 1821/1918 18012KT P6SM VCTS BKN045CB
      TEMPO 1821/1824 3SM TSRA OVC030CB
     FM190000 13007KT P6SM SCT050 BKN150
     FM191100 20005KT 5SM -SHRA OVC040
     FM191500 26007KT 6SM -SHRA OVC040=



000
FTUS43 KLSX 182000 AAB
TAFCOU
TAF AMD
KCOU 182036Z 1821/1918 18012KT P6SM VCTS BKN045CB
      TEMPO 1821/1824 3SM TSRA OVC030CB
     FM190000 13007KT P6SM SCT050 BKN150
     FM191100 20005KT 5SM -SHRA OVC040
     FM191500 26007KT 6SM -SHRA OVC040=



000
FTUS43 KLSX 181800 AAA
TAFUIN
TAF AMD
KUIN 181811Z 1818/1918 14012G18KT P6SM SCT045 BKN200
     FM190200 11006KT P6SM VCTS BKN050CB
     FM190600 11005KT P6SM SCT050 BKN150
     FM191400 02006KT 5SM -RA BR OVC040=



000
FTUS43 KLSX 181800 AAA
TAFCOU
TAF AMD
KCOU 181811Z 1818/1918 15015G23KT P6SM BKN045
     FM182000 15011KT P6SM VCTS BKN045CB
     FM190000 13007KT P6SM SCT050 BKN150
     FM191100 20005KT 5SM -SHRA OVC040
     FM191500 26007KT 6SM -SHRA OVC040=



000
FTUS43 KLSX 181800 AAA
TAFCOU
TAF AMD
KCOU 181811Z 1818/1918 15015G23KT P6SM BKN045
     FM182000 15011KT P6SM VCTS BKN045CB
     FM190000 13007KT P6SM SCT050 BKN150
     FM191100 20005KT 5SM -SHRA OVC040
     FM191500 26007KT 6SM -SHRA OVC040=



000
FTUS43 KLSX 181800 AAA
TAFUIN
TAF AMD
KUIN 181811Z 1818/1918 14012G18KT P6SM SCT045 BKN200
     FM190200 11006KT P6SM VCTS BKN050CB
     FM190600 11005KT P6SM SCT050 BKN150
     FM191400 02006KT 5SM -RA BR OVC040=



000
FTUS43 KLSX 181700
TAFSUS
TAF
KSUS 181735Z 1818/1918 13005KT P6SM SCT045 BKN200
     FM190900 VRB03KT 5SM -RA BR OVC040
     FM191300 36005KT 3SM -RA BR OVC030=



000
FTUS43 KLSX 181700
TAFCOU
TAF
KCOU 181735Z 1818/1918 16011KT P6SM BKN045
     FM182000 16010KT P6SM VCTS BKN045CB
     FM190000 13007KT P6SM SCT050 BKN150
     FM191100 20005KT 5SM -SHRA OVC040
     FM191500 26007KT 6SM -SHRA OVC040=



000
FTUS43 KLSX 181700
TAFSTL
TAF
KSTL 181735Z 1818/1924 13008KT P6SM SCT045 BKN200
     FM190900 08005KT 5SM -RA BR OVC040
     FM191300 36006KT 3SM -RA BR OVC030
     FM191900 30009KT P6SM VCTS BKN040CB=



000
FTUS43 KLSX 181700
TAFUIN
TAF
KUIN 181735Z 1818/1918 14009KT P6SM SCT045 BKN200
     FM190200 11006KT P6SM VCTS BKN050CB
     FM190600 11005KT P6SM SCT050 BKN150
     FM191400 02006KT 5SM -RA BR OVC040=



000
FTUS43 KLSX 181300 AAA
TAFSUS
TAF AMD
KSUS 181332Z 1814/1912 12005KT P6SM SCT050 SCT150 BKN250
     FM190600 VRB03KT P6SM VCSH BKN050 OVC120
     FM190900 VRB03KT 5SM -SHRA VCTS BKN040CB OVC100=



000
FTUS43 KLSX 181100
TAFUIN
TAF
KUIN 181129Z 1812/1912 13007KT P6SM SCT050 SCT150 BKN250
     FM190900 06005KT P6SM VCSH BKN050 OVC200=



000
FTUS43 KLSX 181100
TAFCOU
TAF
KCOU 181129Z 1812/1912 13006KT P6SM SCT150 BKN250
     FM181500 16006KT P6SM VCSH SCT050 BKN150
     FM190000 12005KT P6SM VCSH BKN050 OVC120
     FM190600 12004KT 5SM -SHRA VCTS BKN040CB OVC100=



000
FTUS43 KLSX 181100
TAFSUS
TAF
KSUS 181129Z 1812/1912 00000KT 4SM BR FEW150 BKN250
      TEMPO 1812/1814 2SM BR
     FM181500 12006KT P6SM SCT050 SCT150 BKN250
     FM190600 VRB03KT P6SM VCSH BKN050 OVC120
     FM190900 VRB03KT 5SM -SHRA VCTS BKN040CB OVC100=



000
FTUS43 KLSX 181100
TAFSTL
TAF
KSTL 181129Z 1812/1918 VRB03KT 4SM BR FEW150 BKN250
     FM181500 13008KT P6SM SCT050 SCT150 BKN250
     FM190600 11006KT P6SM VCSH BKN050 OVC120
     FM190900 30008KT 5SM -SHRA VCTS BKN040CB OVC100=



000
FTUS43 KLSX 180900 AAA
TAFSUS
TAF AMD
KSUS 180904Z 1809/1906 00000KT 4SM BR SCT150 BKN250
     FM181400 13007KT P6SM BKN050
     FM190400 10007KT P6SM VCSH BKN050 OVC120=



000
FTUS43 KLSX 180900 AAA
TAFSUS
TAF AMD
KSUS 180904Z 1809/1906 00000KT 4SM BR SCT150 BKN250
     FM181400 13007KT P6SM BKN050
     FM190400 10007KT P6SM VCSH BKN050 OVC120=



000
FTUS43 KLSX 180900 AAA
TAFCOU
TAF AMD
KCOU 180902Z 1809/1906 12006KT P6SM SCT120 BKN250
     FM181400 13005KT P6SM VCSH SCT050 BKN120
     FM181900 13008KT P6SM BKN040
     FM190400 12008KT 6SM -SHRA BKN040=



000
FTUS43 KLSX 180900 AAA
TAFCOU
TAF AMD
KCOU 180902Z 1809/1906 12006KT P6SM SCT120 BKN250
     FM181400 13005KT P6SM VCSH SCT050 BKN120
     FM181900 13008KT P6SM BKN040
     FM190400 12008KT 6SM -SHRA BKN040=



000
FTUS43 KLSX 180800 AAA
TAFSTL
TAF AMD
KSTL 180857Z 1809/1912 10004KT P6SM SCT150 BKN250
     FM181600 14009KT P6SM BKN050
     FM190400 10008KT P6SM VCSH BKN050 OVC120
     FM190800 09008KT 6SM -SHRA OVC035=



000
FTUS43 KLSX 180500
TAFSUS
TAF
KSUS 180520Z 1806/1906 VRB03KT P6SM SCT050 SCT250
      TEMPO 1809/1813 4SM BR
     FM181600 14009KT P6SM BKN050
     FM190400 10007KT P6SM VCSH BKN050 OVC120=



000
FTUS43 KLSX 180500
TAFSTL
TAF
KSTL 180520Z 1806/1912 10007KT P6SM SCT050 SCT250
     FM181600 14009KT P6SM BKN050
     FM190400 10008KT P6SM VCSH BKN050 OVC120
     FM190800 09008KT 6SM -SHRA OVC035=



000
FTUS43 KLSX 180500
TAFUIN
TAF
KUIN 180520Z 1806/1906 14007KT P6SM SCT150
     FM190500 12008KT P6SM VCSH BKN050 OVC200=



000
FTUS43 KLSX 180500
TAFCOU
TAF
KCOU 180520Z 1806/1906 11007KT P6SM SCT050 SCT250
     FM181400 13005KT P6SM VCSH SCT050 BKN120
     FM181900 13008KT P6SM BKN040
     FM190400 12008KT 6SM -SHRA BKN040=



000
FTUS43 KLSX 172300
TAFSUS
TAF
KSUS 172320Z 1800/1824 VRB03KT P6SM SCT050 SCT250
      TEMPO 1809/1813 4SM BR
     FM181600 14009KT P6SM BKN050=



000
FTUS43 KLSX 172300
TAFUIN
TAF
KUIN 172320Z 1800/1824 13007KT P6SM SCT050 SCT100=



000
FTUS43 KLSX 172300
TAFCOU
TAF
KCOU 172320Z 1800/1824 12007KT P6SM SCT050 SCT250
     FM181400 13005KT P6SM VCSH SCT050 BKN120
     FM181900 14008KT 6SM -SHRA BKN050=



000
FTUS43 KLSX 172300
TAFSTL
TAF
KSTL 172320Z 1800/1906 10007KT P6SM SCT050 SCT250
     FM181600 14009KT P6SM BKN050
     FM190400 10008KT P6SM VCSH BKN050 OVC120=



000
FTUS43 KLSX 172000 AAA
TAFSTL
TAF AMD
KSTL 172057Z 1721/1824 11007KT P6SM SCT050=



000
FTUS43 KLSX 172000 AAA
TAFSTL
TAF AMD
KSTL 172057Z 1721/1824 11007KT P6SM SCT050=



000
FTUS43 KLSX 171700
TAFUIN
TAF
KUIN 171730Z 1718/1818 13007KT P6SM SCT050=



000
FTUS43 KLSX 171700
TAFSTL
TAF
KSTL 171730Z 1718/1824 11007KT P6SM SCT050=



000
FTUS43 KLSX 171700
TAFCOU
TAF
KCOU 171730Z 1718/1818 13007KT P6SM SCT050
     FM181200 13005KT P6SM VCSH SCT050 BKN120=



000
FTUS43 KLSX 171700
TAFSUS
TAF
KSUS 171730Z 1718/1818 10007KT P6SM SCT050
     FM180000 VRB03KT P6SM SCT050
      TEMPO 1809/1813 4SM BR=



000
FTUS43 KLSX 171700
TAFCOU
TAF
KCOU 171730Z 1718/1818 13007KT P6SM SCT050
     FM181200 13005KT P6SM VCSH SCT050 BKN120=



000
FTUS43 KLSX 171700
TAFSTL
TAF
KSTL 171730Z 1718/1824 11007KT P6SM SCT050=



000
FTUS43 KLSX 171700
TAFSUS
TAF
KSUS 171730Z 1718/1818 10007KT P6SM SCT050
     FM180000 VRB03KT P6SM SCT050
      TEMPO 1809/1813 4SM BR=



000
FTUS43 KLSX 171700
TAFUIN
TAF
KUIN 171730Z 1718/1818 13007KT P6SM SCT050=



000
FTUS43 KLSX 171500 AAA
TAFSTL
TAF AMD
KSTL 171506Z 1715/1818 11007KT P6SM SCT050
     FM181400 13008KT P6SM BKN040=



000
FTUS43 KLSX 171500 AAA
TAFSTL
TAF AMD
KSTL 171506Z 1715/1818 11007KT P6SM SCT050
     FM181400 13008KT P6SM BKN040=



000
FTUS43 KLSX 171100
TAFCOU
TAF
KCOU 171127Z 1712/1812 11005KT P6SM SCT060 BKN250
     FM171500 13007KT P6SM SCT040 BKN250
     FM180000 12005KT P6SM SCT100 BKN250=



000
FTUS43 KLSX 171100
TAFSUS
TAF
KSUS 171127Z 1712/1812 00000KT 4SM BR SCT060 BKN250
      TEMPO 1712/1714 2SM BR
     FM171500 12006KT P6SM SCT040 BKN250
     FM180000 VRB03KT P6SM BKN250=



000
FTUS43 KLSX 171100
TAFSTL
TAF
KSTL 171127Z 1712/1818 VRB03KT 6SM BR SCT060 BKN250
     FM171500 12007KT P6SM SCT040 BKN250
     FM180000 13005KT P6SM BKN250
     FM181400 13008KT P6SM BKN040=



000
FTUS43 KLSX 171100
TAFUIN
TAF
KUIN 171127Z 1712/1812 VRB03KT P6SM BKN060
     FM171500 14006KT P6SM SCT040 BKN250
     FM180000 14005KT P6SM BKN250=



000
FTUS43 KLSX 171100
TAFUIN
TAF
KUIN 171127Z 1712/1812 VRB03KT P6SM BKN060
     FM171500 14006KT P6SM SCT040 BKN250
     FM180000 14005KT P6SM BKN250=



000
FTUS43 KLSX 171100
TAFCOU
TAF
KCOU 171127Z 1712/1812 11005KT P6SM SCT060 BKN250
     FM171500 13007KT P6SM SCT040 BKN250
     FM180000 12005KT P6SM SCT100 BKN250=



000
FTUS43 KLSX 171100
TAFSUS
TAF
KSUS 171127Z 1712/1812 00000KT 4SM BR SCT060 BKN250
      TEMPO 1712/1714 2SM BR
     FM171500 12006KT P6SM SCT040 BKN250
     FM180000 VRB03KT P6SM BKN250=



000
FTUS43 KLSX 171100
TAFSTL
TAF
KSTL 171127Z 1712/1818 VRB03KT 6SM BR SCT060 BKN250
     FM171500 12007KT P6SM SCT040 BKN250
     FM180000 13005KT P6SM BKN250
     FM181400 13008KT P6SM BKN040=



000
FTUS43 KLSX 171000 AAA
TAFSUS
TAF AMD
KSUS 171008Z 1710/1806 00000KT 4SM BR SCT060 BKN250
      TEMPO 1710/1712 2SM BR SCT005 BKN060
     FM171200 00000KT 1SM BR BKN005
     FM171500 11005KT P6SM SCT040=



000
FTUS43 KLSX 171000 AAA
TAFSUS
TAF AMD
KSUS 171008Z 1710/1806 00000KT 4SM BR SCT060 BKN250
      TEMPO 1710/1712 2SM BR SCT005 BKN060
     FM171200 00000KT 1SM BR BKN005
     FM171500 11005KT P6SM SCT040=



000
FTUS43 KLSX 170900 AAA
TAFSTL
TAF AMD
KSTL 170911Z 1709/1812 VRB03KT P6SM SCT060 BKN250
      TEMPO 1709/1711 4SM BR
     FM171100 VRB03KT 2SM BR SCT005 BKN250
      TEMPO 1711/1714 BKN005
     FM171500 12007KT P6SM SCT040=



000
FTUS43 KLSX 170500
TAFSUS
TAF
KSUS 170520Z 1706/1806 00000KT P6SM BKN250
      TEMPO 1707/1710 3SM BR
     FM171000 00000KT 1SM BR BKN005
     FM171500 11005KT P6SM SCT040=



000
FTUS43 KLSX 170500
TAFSTL
TAF
KSTL 170520Z 1706/1812 VRB04KT P6SM BKN250
     FM171000 VRB03KT 2SM BR BKN005
     FM171500 12007KT P6SM SCT040=



000
FTUS43 KLSX 170500
TAFCOU
TAF
KCOU 170520Z 1706/1806 VRB03KT P6SM BKN250
     FM171000 VRB03KT 4SM BR BKN250
     FM171400 13007KT P6SM SCT040=



000
FTUS43 KLSX 170500
TAFUIN
TAF
KUIN 170520Z 1706/1806 VRB03KT P6SM BKN060
     FM171500 14007KT P6SM SCT040=



000
FTUS43 KLSX 170500
TAFSUS
TAF
KSUS 170520Z 1706/1806 00000KT P6SM BKN250
      TEMPO 1707/1710 3SM BR
     FM171000 00000KT 1SM BR BKN005
     FM171500 11005KT P6SM SCT040=



000
FTUS43 KLSX 170300 AAA
TAFSTL
TAF AMD
KSTL 170310Z 1703/1806 VRB04KT P6SM FEW060
     FM171000 VRB03KT 2SM BR BKN005
     FM171500 12007KT P6SM SCT040=



000
FTUS43 KLSX 162300
TAFUIN
TAF
KUIN 162320Z 1700/1724 VRB04KT P6SM BKN060
     FM170200 VRB03KT P6SM FEW060
     FM171500 14007KT P6SM SCT040=



000
FTUS43 KLSX 162300
TAFSUS
TAF
KSUS 162320Z 1700/1724 VRB03KT P6SM BKN060
     FM170200 00000KT 6SM HZ FEW060
     FM170500 00000KT 3SM BR SCT005
     FM170800 00000KT 1SM BR BKN005
     FM171500 11005KT 6SM HZ SCT040=



000
FTUS43 KLSX 162300
TAFSTL
TAF
KSTL 162320Z 1700/1806 09005KT P6SM BKN060
     FM170200 VRB03KT P6SM FEW060
     FM171000 VRB03KT 2SM BR BKN005
     FM171500 12007KT P6SM SCT040=



000
FTUS43 KLSX 162300
TAFCOU
TAF
KCOU 162320Z 1700/1724 VRB03KT P6SM SKC
     FM171000 VRB03KT 4SM BR FEW050
     FM171400 13007KT P6SM SCT040=



000
FTUS43 KLSX 162100 AAA
TAFSTL
TAF AMD
KSTL 162104Z 1621/1724 VRB04KT P6SM SCT050
     FM170100 VRB03KT P6SM FEW050
     FM171000 VRB03KT 2SM BR BKN006
     FM171500 11006KT P6SM SCT030=



000
FTUS43 KLSX 162100 AAA
TAFSTL
TAF AMD
KSTL 162104Z 1621/1724 VRB04KT P6SM SCT050
     FM170100 VRB03KT P6SM FEW050
     FM171000 VRB03KT 2SM BR BKN006
     FM171500 11006KT P6SM SCT030=



000
FTUS43 KLSX 161700
TAFSUS
TAF
KSUS 161739Z 1618/1718 VRB03KT P6SM BKN045
     FM170100 00000KT 6SM HZ FEW050
     FM170500 00000KT 3SM BR SCT007
     FM170800 00000KT 1SM BR BKN007
     FM171500 VRB03KT 6SM HZ SCT030=



000
FTUS43 KLSX 161700
TAFSTL
TAF
KSTL 161739Z 1618/1724 VRB04KT P6SM SCT040
     FM170100 VRB03KT 6SM HZ FEW050
     FM171000 VRB03KT 2SM BR BKN006
     FM171500 11006KT P6SM SCT030=



000
FTUS43 KLSX 161700
TAFCOU
TAF
KCOU 161739Z 1618/1718 VRB04KT P6SM SCT050
     FM171000 VRB03KT 4SM BR FEW050
     FM171400 13007KT P6SM SCT050=



000
FTUS43 KLSX 161700
TAFUIN
TAF
KUIN 161739Z 1618/1718 VRB04KT P6SM FEW050
     FM171500 14007KT P6SM SCT050=



000
FTUS43 KLSX 161500 AAA
TAFSTL
TAF AMD
KSTL 161503Z 1615/1718 VRB04KT P6SM FEW007 SCT020
     FM161700 VRB03KT P6SM BKN035
     FM170000 VRB03KT P6SM FEW050=



000
FTUS43 KLSX 161400 AAB
TAFSUS
TAF AMD
KSUS 161418Z 1614/1712 00000KT P6SM SCT030
     FM161700 VRB03KT P6SM BKN035
     FM170100 00000KT P6SM FEW050=



000
FTUS43 KLSX 161400 AAA
TAFCOU
TAF AMD
KCOU 161415Z 1614/1712 VRB05KT P6SM SCT030
     FM170000 08004KT P6SM FEW050=



000
FTUS43 KLSX 161400 AAA
TAFCOU
TAF AMD
KCOU 161415Z 1614/1712 VRB05KT P6SM SCT030
     FM170000 08004KT P6SM FEW050=



000
FTUS43 KLSX 161200 AAA
TAFSUS
TAF AMD
KSUS 161259Z 1613/1712 00000KT P6SM FEW150
     FM161400 00000KT P6SM FEW005 BKN020
     FM161700 VRB03KT P6SM BKN035
     FM170100 00000KT P6SM FEW050=



000
FTUS43 KLSX 161200 AAA
TAFSUS
TAF AMD
KSUS 161259Z 1613/1712 00000KT P6SM FEW150
     FM161400 00000KT P6SM FEW005 BKN020
     FM161700 VRB03KT P6SM BKN035
     FM170100 00000KT P6SM FEW050=



    US Dept of Commerce
    National Oceanic and Atmospheric Administration
    National Weather Service
    1325 East West Highway
    Silver Spring, MD 20910
    Page Author: NWS Internet Services Team
Disclaimer
Information Quality
Credits
Glossary
Privacy Policy
Freedom of Information Act (FOIA)
About Us
Career Opportunities